createdAt,value
2022-08-27T00:01:37.872Z,101851.09
2022-08-27T00:04:04.836Z,101854.41
2022-08-27T00:06:31.929Z,101855.47
2022-08-27T00:08:59.949Z,101855.72
2022-08-27T00:11:26.918Z,101848.38
2022-08-27T00:13:54.395Z,101856.53
2022-08-27T00:16:21.487Z,101845.28
2022-08-27T00:18:48.770Z,101844.81
2022-08-27T00:21:17.683Z,101843.97
2022-08-27T00:23:44.909Z,101847.88
2022-08-27T00:26:13.995Z,101845.03
2022-08-27T00:28:41.731Z,101837.22
2022-08-27T00:31:12.366Z,101835.56
2022-08-27T00:33:40.064Z,101845.88
2022-08-27T00:36:08.602Z,101840.91
2022-08-27T00:38:37.360Z,101842.78
2022-08-27T00:41:08.673Z,101847.91
2022-08-27T00:43:53.665Z,101836.50
2022-08-27T00:46:53.230Z,101835.31
2022-08-27T00:50:07.827Z,101834.75
2022-08-27T00:52:45.458Z,101830.94
2022-08-27T00:55:18.543Z,101825.97
2022-08-27T00:57:51.212Z,101827.06
2022-08-27T01:00:20.138Z,101836.31
2022-08-27T01:02:48.339Z,101841.03
2022-08-27T01:05:26.329Z,101850.03
2022-08-27T01:08:04.481Z,101842.59
2022-08-27T01:10:32.455Z,101845.53
2022-08-27T01:12:59.483Z,101851.09
2022-08-27T01:15:30.757Z,101845.03
2022-08-27T01:17:58.519Z,101839.59
2022-08-27T01:20:36.007Z,101849.44
2022-08-27T01:23:31.955Z,101848.88
2022-08-27T01:26:02.801Z,101843.97
2022-08-27T01:28:35.930Z,101844.34
2022-08-27T01:31:10.612Z,101843.28
2022-08-27T01:33:38.182Z,101844.34
2022-08-27T01:36:07.829Z,101843.97
2022-08-27T01:38:34.904Z,101835.56
2022-08-27T01:41:03.555Z,101843.28
2022-08-27T01:43:31.723Z,101842.31
2022-08-27T01:45:58.852Z,101838.16
2022-08-27T01:48:25.952Z,101842.31
2022-08-27T01:50:53.043Z,101838.53
2022-08-27T01:53:24.231Z,101839.81
2022-08-27T01:55:53.620Z,101835.81
2022-08-27T01:58:26.688Z,101834.38
2022-08-27T02:00:58.020Z,101833.78
2022-08-27T02:03:26.871Z,101834.84
2022-08-27T02:05:54.481Z,101835.69
2022-08-27T02:08:21.701Z,101828.09
2022-08-27T02:10:50.491Z,101822.88
2022-08-27T02:13:18.901Z,101833.78
2022-08-27T02:15:46.859Z,101826.78
2022-08-27T02:18:15.123Z,101823.13
2022-08-27T02:20:45.133Z,101817.06
2022-08-27T02:23:13.328Z,101816.84
2022-08-27T02:25:41.486Z,101819.81
2022-08-27T02:28:09.489Z,101816.84
2022-08-27T02:30:37.536Z,101817.56
2022-08-27T02:33:05.787Z,101817.31
2022-08-27T02:35:38.696Z,101812.94
2022-08-27T02:38:07.629Z,101813.16
2022-08-27T02:40:34.928Z,101817.31
2022-08-27T02:43:01.973Z,101818.38
2022-08-27T02:45:29.003Z,101821.34
2022-08-27T02:47:56.087Z,101821.34
2022-08-27T02:50:27.483Z,101819.09
2022-08-27T02:52:54.871Z,101812.22
2022-08-27T02:55:22.882Z,101817.44
2022-08-27T02:57:50.088Z,101815.41
2022-08-27T03:00:20.800Z,101812.81
2022-08-27T03:02:48.313Z,101821.47
2022-08-27T03:05:18.137Z,101807.25
2022-08-27T03:07:46.164Z,101807.13
2022-08-27T03:10:17.192Z,101808.31
2022-08-27T03:12:44.722Z,101804.53
2022-08-27T03:15:16.096Z,101799.53
2022-08-27T03:18:01.934Z,101800.72
2022-08-27T03:20:29.703Z,101809.38
2022-08-27T03:22:56.669Z,101796.94
2022-08-27T03:25:24.172Z,101802.03
2022-08-27T03:27:51.157Z,101808.41
2022-08-27T03:30:22.660Z,101810.44
2022-08-27T03:32:50.194Z,101810.53
2022-08-27T03:35:17.672Z,101809.00
2022-08-27T03:37:44.706Z,101807.78
2022-08-27T03:40:13.514Z,101805.31
2022-08-27T03:42:42.023Z,101799.59
2022-08-27T03:45:11.068Z,101810.34
2022-08-27T03:47:38.607Z,101799.22
2022-08-27T03:50:08.163Z,101802.66
2022-08-27T03:52:36.661Z,101813.16
2022-08-27T03:55:07.464Z,101805.59
2022-08-27T03:57:34.423Z,101815.28
2022-08-27T04:00:01.447Z,101813.81
2022-08-27T04:02:28.782Z,101810.31
2022-08-27T04:04:57.637Z,101806.16
2022-08-27T04:07:24.803Z,101811.84
2022-08-27T04:09:51.777Z,101814.09
2022-08-27T04:12:18.872Z,101811.84
2022-08-27T04:14:45.797Z,101814.09
2022-08-27T04:17:12.982Z,101818.09
2022-08-27T04:19:39.911Z,101822.25
2022-08-27T04:22:08.060Z,101822.94
2022-08-27T04:24:37.720Z,101819.75
2022-08-27T04:27:06.481Z,101819.16
2022-08-27T04:29:34.220Z,101818.94
2022-08-27T04:32:02.046Z,101809.34
2022-08-27T04:34:30.100Z,101809.09
2022-08-27T04:36:57.992Z,101809.34
2022-08-27T04:39:28.153Z,101808.88
2022-08-27T04:41:59.288Z,101807.81
2022-08-27T04:44:29.416Z,101809.47
2022-08-27T04:47:00.330Z,101815.75
2022-08-27T04:49:29.015Z,101812.78
2022-08-27T04:51:58.208Z,101817.88
2022-08-27T04:54:32.874Z,101809.84
2022-08-27T04:57:01.127Z,101822.00
2022-08-27T04:59:28.087Z,101824.16
2022-08-27T05:01:55.064Z,101823.31
2022-08-27T05:04:22.049Z,101817.28
2022-08-27T05:06:50.605Z,101828.00
2022-08-27T05:09:21.592Z,101825.28
2022-08-27T05:11:53.924Z,101823.13
2022-08-27T05:14:22.103Z,101824.41
2022-08-27T05:16:49.046Z,101825.94
2022-08-27T05:19:16.182Z,101827.22
2022-08-27T05:21:49.893Z,101824.88
2022-08-27T05:24:18.263Z,101835.75
2022-08-27T05:26:46.506Z,101826.16
2022-08-27T05:29:14.276Z,101831.59
2022-08-27T05:31:42.514Z,101833.25
2022-08-27T05:34:18.730Z,101839.06
2022-08-27T05:36:49.426Z,101839.44
2022-08-27T05:39:17.743Z,101834.00
2022-08-27T05:41:44.693Z,101842.69
2022-08-27T05:44:40.159Z,101837.47
2022-08-27T05:46:59.023Z,101840.09
2022-08-27T05:49:25.961Z,101845.09
2022-08-27T05:51:52.903Z,101840.84
2022-08-27T05:54:20.150Z,101842.28
2022-08-27T05:56:49.731Z,101843.25
2022-08-27T05:59:35.393Z,101840.06
2022-08-27T06:02:05.936Z,101843.50
2022-08-27T06:04:32.873Z,101846.84
2022-08-27T06:06:59.823Z,101838.44
2022-08-27T06:09:31.564Z,101839.41
2022-08-27T06:12:02.449Z,101844.50
2022-08-27T06:14:30.130Z,101846.78
2022-08-27T06:16:58.516Z,101846.06
2022-08-27T06:19:25.443Z,101842.41
2022-08-27T06:22:00.743Z,101841.44
2022-08-27T06:24:39.725Z,101847.50
2022-08-27T06:27:08.383Z,101837.56
2022-08-27T06:29:35.381Z,101848.56
2022-08-27T06:32:02.542Z,101845.38
2022-08-27T06:34:29.737Z,101842.19
2022-08-27T06:36:56.909Z,101849.19
2022-08-27T06:39:23.852Z,101846.94
2022-08-27T06:41:50.775Z,101846.00
2022-08-27T06:44:18.263Z,101851.31
2022-08-27T06:46:45.387Z,101848.00
2022-08-27T06:49:13.539Z,101847.78
2022-08-27T06:51:45.619Z,101855.94
2022-08-27T06:54:14.270Z,101850.72
2022-08-27T06:56:44.332Z,101844.53
2022-08-27T06:59:15.784Z,101854.59
2022-08-27T07:01:47.158Z,101849.16
2022-08-27T07:04:21.467Z,101839.44
2022-08-27T07:06:49.396Z,101847.50
2022-08-27T07:09:20.460Z,101839.63
2022-08-27T07:11:47.744Z,101847.19
2022-08-27T07:14:14.763Z,101848.53
2022-08-27T07:16:43.083Z,101845.41
2022-08-27T07:19:12.227Z,101850.25
2022-08-27T07:21:39.853Z,101850.72
2022-08-27T07:24:09.036Z,101854.03
2022-08-27T07:26:41.148Z,101847.69
2022-08-27T07:29:10.659Z,101849.06
2022-08-27T07:31:38.716Z,101845.31
2022-08-27T07:34:07.108Z,101848.56
2022-08-27T07:36:35.580Z,101853.84
2022-08-27T07:39:02.608Z,101855.47
2022-08-27T07:41:32.260Z,101852.91
2022-08-27T07:44:18.928Z,101860.56
2022-08-27T07:46:48.705Z,101854.28
2022-08-27T07:49:18.087Z,101861.97
2022-08-27T07:51:45.969Z,101865.16
2022-08-27T07:54:13.404Z,101861.25
2022-08-27T07:56:40.835Z,101867.13
2022-08-27T07:59:08.221Z,101864.00
2022-08-27T08:01:35.663Z,101865.03
2022-08-27T08:04:03.036Z,101875.78
2022-08-27T08:06:30.312Z,101874.97
2022-08-27T08:08:58.539Z,101871.91
2022-08-27T08:11:26.332Z,101872.16
2022-08-27T08:13:53.325Z,101875.78
2022-08-27T08:16:20.858Z,101869.69
2022-08-27T08:18:47.801Z,101875.22
2022-08-27T08:21:15.396Z,101876.00
2022-08-27T08:23:43.923Z,101867.22
2022-08-27T08:26:12.569Z,101866.22
2022-08-27T08:28:40.772Z,101868.84
2022-08-27T08:31:08.058Z,101880.38
2022-08-27T08:33:36.679Z,101877.06
2022-08-27T08:36:11.360Z,101881.47
2022-08-27T08:38:39.320Z,101876.03
2022-08-27T08:41:22.648Z,101877.66
2022-08-27T08:43:51.634Z,101880.94
2022-08-27T08:46:31.119Z,101889.34
2022-08-27T08:49:07.329Z,101894.00
2022-08-27T08:51:41.511Z,101883.09
2022-08-27T08:54:16.611Z,101884.22
2022-08-27T08:57:10.597Z,101879.63
2022-08-27T08:59:42.446Z,101883.72
2022-08-27T09:02:14.463Z,101888.09
2022-08-27T09:04:44.459Z,101891.47
2022-08-27T09:07:45.702Z,101891.22
2022-08-27T09:10:48.523Z,101892.75
2022-08-27T09:13:34.324Z,101887.34
2022-08-27T09:16:05.077Z,101889.53
2022-08-27T09:18:37.292Z,101885.38
2022-08-27T09:21:28.271Z,101890.69
2022-08-27T09:24:28.677Z,101887.66
2022-08-27T09:26:55.660Z,101886.53
2022-08-27T09:29:28.092Z,101887.03
2022-08-27T09:32:00.914Z,101883.56
2022-08-27T09:34:39.055Z,101893.22
2022-08-27T09:37:20.852Z,101893.22
2022-08-27T09:39:56.483Z,101898.53
2022-08-27T09:42:39.079Z,101900.66
2022-08-27T09:45:14.898Z,101900.63
2022-08-27T09:47:55.422Z,101896.41
2022-08-27T09:50:35.210Z,101892.69
2022-08-27T09:53:02.150Z,101899.81
2022-08-27T09:55:34.891Z,101890.59
2022-08-27T09:58:06.262Z,101884.91
2022-08-27T10:00:39.330Z,101888.72
2022-08-27T10:03:09.602Z,101886.22
2022-08-27T10:05:51.644Z,101889.91
2022-08-27T10:08:36.031Z,101885.06
2022-08-27T10:11:19.013Z,101894.28
2022-08-27T10:14:01.322Z,101893.59
2022-08-27T10:16:55.710Z,101885.00
2022-08-27T10:19:57.944Z,101886.56
2022-08-27T10:22:57.954Z,101890.31
2022-08-27T10:25:43.670Z,101891.84
2022-08-27T10:28:41.231Z,101889.53
2022-08-27T10:31:31.198Z,101894.91
2022-08-27T10:34:43.355Z,101898.34
2022-08-27T10:37:20.837Z,101900.00
2022-08-27T10:40:10.157Z,101887.69
2022-08-27T10:43:01.321Z,101894.59
2022-08-27T10:45:47.263Z,101894.84
2022-08-27T10:48:32.608Z,101888.16
2022-08-27T10:51:16.491Z,101893.19
2022-08-27T10:54:41.466Z,101886.56
2022-08-27T10:57:59.019Z,101882.00
2022-08-27T11:01:06.515Z,101880.97
2022-08-27T11:03:48.260Z,101881.34
2022-08-27T11:06:32.571Z,101887.13
2022-08-27T11:09:11.129Z,101882.75
2022-08-27T11:14:58.925Z,101886.22
2022-08-27T11:17:34.676Z,101883.75
2022-08-27T11:20:24.140Z,101882.53
2022-08-27T11:23:13.124Z,101878.44
2022-08-27T11:26:02.144Z,101880.94
2022-08-27T11:28:41.912Z,101875.69
2022-08-27T11:31:32.971Z,101873.47
2022-08-27T11:34:22.951Z,101885.75
2022-08-27T11:37:22.448Z,101883.19
2022-08-27T11:40:02.499Z,101880.38
2022-08-27T11:42:54.246Z,101878.16
2022-08-27T11:45:30.915Z,101883.31
2022-08-27T11:48:01.727Z,101886.88
2022-08-27T11:50:31.164Z,101873.09
2022-08-27T11:53:07.213Z,101874.53
2022-08-27T11:55:38.632Z,101879.78
2022-08-27T11:58:29.154Z,101876.84
2022-08-27T12:01:03.753Z,101870.72
2022-08-27T12:03:35.322Z,101873.25
2022-08-27T12:06:08.876Z,101865.56
2022-08-27T12:08:37.182Z,101863.06
2022-08-27T12:11:35.899Z,101870.84
2022-08-27T12:14:34.091Z,101868.38
2022-08-27T12:17:19.239Z,101864.59
2022-08-27T12:20:10.796Z,101871.47
2022-08-27T12:23:40.791Z,101867.59
2022-08-27T12:26:16.637Z,101866.03
2022-08-27T12:28:43.653Z,101871.78
2022-08-27T12:31:10.741Z,101866.28
2022-08-27T12:33:48.135Z,101869.06
2022-08-27T12:36:28.044Z,101861.88
2022-08-27T12:38:59.106Z,101865.13
2022-08-27T12:41:31.989Z,101869.56
2022-08-27T12:44:12.596Z,101861.31
2022-08-27T12:46:54.171Z,101861.84
2022-08-27T12:49:38.787Z,101861.84
2022-08-27T12:52:48.605Z,101857.44
2022-08-27T12:56:17.807Z,101854.16
2022-08-27T12:59:11.560Z,101857.16
2022-08-27T13:01:56.924Z,101850.84
2022-08-27T13:04:28.699Z,101853.09
2022-08-27T13:06:55.688Z,101853.31
2022-08-27T13:09:33.258Z,101856.66
2022-08-27T13:12:02.523Z,101846.50
2022-08-27T13:14:40.832Z,101844.84
2022-08-27T13:17:16.076Z,101840.44
2022-08-27T13:20:00.896Z,101848.19
2022-08-27T13:22:40.022Z,101847.63
2022-08-27T13:25:23.188Z,101848.72
2022-08-27T13:28:07.881Z,101844.88
2022-08-27T13:30:39.657Z,101841.31
2022-08-27T13:33:20.146Z,101844.06
2022-08-27T13:35:47.472Z,101840.16
2022-08-27T13:38:16.379Z,101842.09
2022-08-27T13:41:01.570Z,101835.50
2022-08-27T13:43:38.904Z,101832.25
2022-08-27T13:46:12.240Z,101840.75
2022-08-27T13:48:45.817Z,101841.53
2022-08-27T13:51:14.875Z,101847.06
2022-08-27T13:54:07.785Z,101848.72
2022-08-27T13:56:48.961Z,101843.22
2022-08-27T13:59:19.604Z,101846.81
2022-08-27T14:02:12.213Z,101851.50
2022-08-27T14:05:04.535Z,101847.63
2022-08-27T14:07:37.427Z,101848.13
2022-08-27T14:10:35.245Z,101847.81
2022-08-27T14:13:27.342Z,101850.00
2022-08-27T14:15:58.054Z,101843.97
2022-08-27T14:18:58.965Z,101839.03
2022-08-27T14:21:21.905Z,101838.16
2022-08-27T14:23:49.204Z,101842.59
2022-08-27T14:26:17.278Z,101838.13
2022-08-27T14:28:45.334Z,101841.97
2022-08-27T14:31:13.975Z,101852.44
2022-08-27T14:33:41.129Z,101846.94
2022-08-27T14:36:09.311Z,101843.91
2022-08-27T14:38:41.076Z,101850.53
2022-08-27T14:41:08.685Z,101850.81
2022-08-27T14:43:36.250Z,101854.34
2022-08-27T14:46:06.507Z,101849.44
2022-08-27T14:48:35.283Z,101854.34
2022-08-27T14:51:13.625Z,101858.44
2022-08-27T14:53:40.619Z,101858.09
2022-08-27T14:56:07.640Z,101862.25
2022-08-27T14:58:34.592Z,101858.94
2022-08-27T15:01:03.842Z,101861.16
2022-08-27T15:03:31.551Z,101863.59
2022-08-27T15:05:58.540Z,101864.47
2022-08-27T15:08:29.438Z,101860.81
2022-08-27T15:10:59.214Z,101864.94
2022-08-27T15:13:26.274Z,101864.47
2022-08-27T15:15:53.305Z,101867.19
2022-08-27T15:18:20.420Z,101870.19
2022-08-27T15:20:47.562Z,101868.19
2022-08-27T15:23:16.272Z,101875.34
2022-08-27T15:25:46.475Z,101868.25
2022-08-27T15:28:13.702Z,101873.25
2022-08-27T15:30:41.121Z,101877.47
2022-08-27T15:33:08.460Z,101878.28
2022-08-27T15:35:35.455Z,101879.09
2022-08-27T15:38:03.169Z,101875.84
2022-08-27T15:40:35.267Z,101881.41
2022-08-27T15:43:06.348Z,101881.31
2022-08-27T15:45:33.907Z,101885.63
2022-08-27T15:48:01.415Z,101880.00
2022-08-27T15:50:30.207Z,101878.41
2022-08-27T15:53:01.955Z,101887.78
2022-08-27T15:55:33.804Z,101876.00
2022-08-27T15:58:01.244Z,101874.91
2022-08-27T16:00:33.534Z,101874.34
2022-08-27T16:03:04.221Z,101875.50
2022-08-27T16:05:36.508Z,101870.53
2022-08-27T16:08:04.797Z,101872.19
2022-08-27T16:10:32.055Z,101878.47
2022-08-27T16:12:59.000Z,101888.94
2022-08-27T16:15:26.063Z,101878.53
2022-08-27T16:17:57.425Z,101879.31
2022-08-27T16:20:25.739Z,101878.47
2022-08-27T16:22:54.051Z,101874.41
2022-08-27T16:25:23.255Z,101876.34
2022-08-27T16:27:51.674Z,101878.13
2022-08-27T16:30:19.917Z,101882.00
2022-08-27T16:32:52.068Z,101874.25
2022-08-27T16:35:20.496Z,101881.69
2022-08-27T16:37:47.499Z,101875.22
2022-08-27T16:40:15.367Z,101878.38
2022-08-27T16:42:47.781Z,101880.84
2022-08-27T16:45:17.268Z,101876.72
2022-08-27T16:48:03.283Z,101872.47
2022-08-27T16:50:34.477Z,101882.88
2022-08-27T16:53:14.500Z,101882.22
2022-08-27T16:55:43.632Z,101874.78
2022-08-27T16:58:29.792Z,101884.59
2022-08-27T17:01:04.199Z,101877.84
2022-08-27T17:03:31.499Z,101883.69
2022-08-27T17:05:58.891Z,101878.78
2022-08-27T17:08:30.202Z,101890.19
2022-08-27T17:10:57.708Z,101881.28
2022-08-27T17:13:29.523Z,101884.13
2022-08-27T17:15:57.770Z,101880.84
2022-08-27T17:18:27.653Z,101894.50
2022-08-27T17:20:56.979Z,101888.00
2022-08-27T17:23:37.167Z,101888.72
2022-08-27T17:26:07.964Z,101889.97
2022-08-27T17:28:39.207Z,101890.06
2022-08-27T17:31:10.420Z,101887.25
2022-08-27T17:33:41.416Z,101889.09
2022-08-27T17:36:10.408Z,101891.44
2022-08-27T17:38:38.806Z,101887.72
2022-08-27T17:41:33.647Z,101889.13
2022-08-27T17:44:27.263Z,101889.88
2022-08-27T17:46:58.407Z,101890.03
2022-08-27T17:49:26.147Z,101890.94
2022-08-27T17:52:00.814Z,101892.16
2022-08-27T17:54:41.767Z,101900.28
2022-08-27T17:57:25.071Z,101899.94
2022-08-27T17:59:53.600Z,101897.97
2022-08-27T18:02:36.610Z,101900.41
2022-08-27T18:05:06.321Z,101896.81
2022-08-27T18:07:36.687Z,101904.22
2022-08-27T18:10:07.724Z,101909.09
2022-08-27T18:12:34.705Z,101908.34
2022-08-27T18:15:24.977Z,101904.88
2022-08-27T18:17:53.518Z,101905.03
2022-08-27T18:20:22.858Z,101913.22
2022-08-27T18:22:50.139Z,101914.81
2022-08-27T18:25:20.046Z,101919.44
2022-08-27T18:27:51.007Z,101926.69
2022-08-27T18:30:19.013Z,101933.00
2022-08-27T18:32:46.101Z,101933.25
2022-08-27T18:35:26.387Z,101939.34
2022-08-27T18:37:54.037Z,101939.72
2022-08-27T18:40:24.210Z,101944.25
2022-08-27T18:42:51.763Z,101954.28
2022-08-27T18:45:25.596Z,101951.53
2022-08-27T18:47:55.491Z,101952.16
2022-08-27T18:50:24.110Z,101954.75
2022-08-27T18:52:54.390Z,101959.25
2022-08-27T18:55:25.813Z,101961.63
2022-08-27T18:57:52.814Z,101959.38
2022-08-27T19:00:20.820Z,101961.66
2022-08-27T19:02:52.523Z,101968.28
2022-08-27T19:05:25.351Z,101965.56
2022-08-27T19:07:54.104Z,101968.91
2022-08-27T19:10:21.473Z,101976.13
2022-08-27T19:12:48.613Z,101984.72
2022-08-27T19:15:16.115Z,101983.03
2022-08-27T19:17:49.289Z,101981.75
2022-08-27T19:20:18.450Z,101978.41
2022-08-27T19:22:47.920Z,101983.75
2022-08-27T19:25:17.077Z,101989.78
2022-08-27T19:27:46.168Z,101987.28
2022-08-27T19:30:15.832Z,101989.44
2022-08-27T19:32:43.540Z,101992.03
2022-08-27T19:35:11.004Z,101991.31
2022-08-27T19:37:52.625Z,101996.50
2022-08-27T19:40:22.109Z,102001.00
2022-08-27T19:42:50.541Z,102008.31
2022-08-27T19:45:23.182Z,102009.53
2022-08-27T19:47:52.760Z,102010.19
2022-08-27T19:50:21.740Z,102010.66
2022-08-27T19:52:49.624Z,102004.72
2022-08-27T19:55:16.883Z,102016.09
2022-08-27T19:57:45.341Z,102010.38
2022-08-27T20:00:15.504Z,102014.16
2022-08-27T20:02:42.614Z,102022.50
2022-08-27T20:05:18.338Z,102013.88
2022-08-27T20:07:48.751Z,102018.59
2022-08-27T20:10:16.560Z,102022.00
2022-08-27T20:12:43.875Z,102013.69
2022-08-27T20:15:11.653Z,102023.75
2022-08-27T20:17:39.930Z,102026.34
2022-08-27T20:20:08.236Z,102026.56
2022-08-27T20:22:35.201Z,102025.59
2022-08-27T20:25:02.328Z,102025.88
2022-08-27T20:27:29.251Z,102029.06
2022-08-27T20:29:56.331Z,102026.94
2022-08-27T20:32:29.249Z,102021.59
2022-08-27T20:34:57.352Z,102025.75
2022-08-27T20:37:24.408Z,102017.88
2022-08-27T20:39:52.357Z,102023.31
2022-08-27T20:42:19.949Z,102018.78
2022-08-27T20:44:47.873Z,102025.28
2022-08-27T20:47:16.470Z,102016.72
2022-08-27T20:49:44.560Z,102028.28
2022-08-27T20:52:12.862Z,102032.31
2022-08-27T20:54:40.747Z,102028.59
2022-08-27T20:57:08.768Z,102037.19
2022-08-27T20:59:54.626Z,102038.47
2022-08-27T21:02:28.338Z,102044.38
2022-08-27T21:04:56.609Z,102043.75
2022-08-27T21:07:25.333Z,102040.03
2022-08-27T21:09:57.266Z,102043.66
2022-08-27T21:12:30.925Z,102040.53
2022-08-27T21:14:58.288Z,102043.53
2022-08-27T21:17:28.320Z,102039.16
2022-08-27T21:19:55.944Z,102040.69
2022-08-27T21:22:25.158Z,102043.84
2022-08-27T21:24:53.363Z,102040.41
2022-08-27T21:27:21.749Z,102039.13
2022-08-27T21:29:49.775Z,102040.19
2022-08-27T21:32:17.592Z,102040.41
2022-08-27T21:34:45.369Z,102044.66
2022-08-27T21:37:14.597Z,102046.19
2022-08-27T21:39:43.444Z,102051.38
2022-08-27T21:42:12.406Z,102048.53
2022-08-27T21:44:40.092Z,102058.56
2022-08-27T21:47:07.336Z,102063.22
2022-08-27T21:49:35.352Z,102061.94
2022-08-27T21:52:05.907Z,102058.63
2022-08-27T21:54:36.212Z,102051.09
2022-08-27T21:57:04.358Z,102051.09
2022-08-27T21:59:32.996Z,102050.91
2022-08-27T22:02:01.285Z,102055.72
2022-08-27T22:04:30.741Z,102057.00
2022-08-27T22:06:59.467Z,102062.66
2022-08-27T22:09:27.423Z,102060.81
2022-08-27T22:11:54.977Z,102070.81
2022-08-27T22:14:22.184Z,102067.94
2022-08-27T22:16:49.843Z,102067.97
2022-08-27T22:19:17.365Z,102068.38
2022-08-27T22:21:44.532Z,102068.38
2022-08-27T22:24:11.829Z,102070.06
2022-08-27T22:26:38.780Z,102074.69
2022-08-27T22:29:06.156Z,102069.28
2022-08-27T22:31:33.620Z,102067.66
2022-08-27T22:34:02.304Z,102068.44
2022-08-27T22:36:29.531Z,102071.41
2022-08-27T22:38:59.786Z,102068.50
2022-08-27T22:41:32.547Z,102059.72
2022-08-27T22:43:59.948Z,102060.19
2022-08-27T22:46:27.392Z,102071.47
2022-08-27T22:48:54.397Z,102068.97
2022-08-27T22:51:22.064Z,102072.72
2022-08-27T22:53:49.027Z,102068.78
2022-08-27T22:56:15.946Z,102076.09
2022-08-27T22:58:45.857Z,102077.75
2022-08-27T23:01:18.192Z,102082.75
2022-08-27T23:03:45.195Z,102081.94
2022-08-27T23:06:12.475Z,102075.28
2022-08-27T23:08:40.203Z,102076.53
2022-08-27T23:11:07.190Z,102078.84
2022-08-27T23:13:34.670Z,102086.16
2022-08-27T23:16:05.812Z,102082.84
2022-08-27T23:18:33.267Z,102086.13
2022-08-27T23:21:00.265Z,102082.81
2022-08-27T23:23:29.791Z,102091.97
2022-08-27T23:26:17.075Z,102087.81
2022-08-27T23:28:44.872Z,102086.34
2022-08-27T23:31:12.938Z,102084.47
2022-08-27T23:33:40.836Z,102079.88
2022-08-27T23:36:09.292Z,102081.56
2022-08-27T23:38:36.573Z,102076.97
2022-08-27T23:41:03.948Z,102076.97
2022-08-27T23:43:30.937Z,102088.22
2022-08-27T23:45:57.826Z,102086.97
2022-08-27T23:48:24.865Z,102085.72
2022-08-27T23:50:51.938Z,102086.56
2022-08-27T23:53:18.977Z,102094.88
2022-08-27T23:55:45.935Z,102090.31
2022-08-27T23:58:13.354Z,102092.00
